sensor_id;sensor_type;location;lat;lon;timestamp;temperature;humidity
16437;DHT22;8328;52.206;21.006;2022-12-29T00:02:19;7.60;99.90
16437;DHT22;8328;52.206;21.006;2022-12-29T00:04:44;7.60;99.90
16437;DHT22;8328;52.206;21.006;2022-12-29T00:07:11;7.60;99.90
16437;DHT22;8328;52.206;21.006;2022-12-29T00:09:37;7.60;99.90
16437;DHT22;8328;52.206;21.006;2022-12-29T00:12:03;7.60;99.90
16437;DHT22;8328;52.206;21.006;2022-12-29T00:14:31;7.60;99.90
16437;DHT22;8328;52.206;21.006;2022-12-29T00:17:15;7.70;99.90
16437;DHT22;8328;52.206;21.006;2022-12-29T00:19:41;7.70;99.90
16437;DHT22;8328;52.206;21.006;2022-12-29T00:22:25;7.70;99.90
16437;DHT22;8328;52.206;21.006;2022-12-29T00:25:11;7.70;99.90
16437;DHT22;8328;52.206;21.006;2022-12-29T00:27:56;7.60;99.90
16437;DHT22;8328;52.206;21.006;2022-12-29T00:30:41;7.70;99.90
16437;DHT22;8328;52.206;21.006;2022-12-29T00:33:30;7.70;99.90
16437;DHT22;8328;52.206;21.006;2022-12-29T00:38:57;7.70;99.90
16437;DHT22;8328;52.206;21.006;2022-12-29T00:41:42;7.70;99.90
16437;DHT22;8328;52.206;21.006;2022-12-29T00:44:26;7.70;99.90
16437;DHT22;8328;52.206;21.006;2022-12-29T00:46:51;7.70;99.90
16437;DHT22;8328;52.206;21.006;2022-12-29T00:49:17;7.70;99.90
16437;DHT22;8328;52.206;21.006;2022-12-29T00:52:06;7.70;99.90
16437;DHT22;8328;52.206;21.006;2022-12-29T00:54:33;7.70;99.90
16437;DHT22;8328;52.206;21.006;2022-12-29T00:57:00;7.60;99.90
16437;DHT22;8328;52.206;21.006;2022-12-29T00:59:26;7.60;99.90
16437;DHT22;8328;52.206;21.006;2022-12-29T01:01:55;7.60;99.90
16437;DHT22;8328;52.206;21.006;2022-12-29T01:04:23;7.60;99.90
16437;DHT22;8328;52.206;21.006;2022-12-29T01:06:49;7.50;99.90
16437;DHT22;8328;52.206;21.006;2022-12-29T01:09:16;7.60;99.90
16437;DHT22;8328;52.206;21.006;2022-12-29T01:12:01;7.60;99.90
16437;DHT22;8328;52.206;21.006;2022-12-29T01:14:27;7.60;99.90
16437;DHT22;8328;52.206;21.006;2022-12-29T01:16:54;7.60;99.90
16437;DHT22;8328;52.206;21.006;2022-12-29T01:19:21;7.60;99.90
16437;DHT22;8328;52.206;21.006;2022-12-29T01:21:47;7.60;99.90
16437;DHT22;8328;52.206;21.006;2022-12-29T01:24:14;7.60;99.90
16437;DHT22;8328;52.206;21.006;2022-12-29T01:26:40;7.60;99.90
16437;DHT22;8328;52.206;21.006;2022-12-29T01:29:06;7.60;99.90
16437;DHT22;8328;52.206;21.006;2022-12-29T01:31:33;7.60;99.90
16437;DHT22;8328;52.206;21.006;2022-12-29T01:33:59;7.50;99.90
16437;DHT22;8328;52.206;21.006;2022-12-29T01:36:25;7.50;99.90
16437;DHT22;8328;52.206;21.006;2022-12-29T01:38:51;7.40;99.90
16437;DHT22;8328;52.206;21.006;2022-12-29T01:41:17;7.40;99.90
16437;DHT22;8328;52.206;21.006;2022-12-29T01:43:48;7.50;99.90
16437;DHT22;8328;52.206;21.006;2022-12-29T01:46:41;7.40;99.90
16437;DHT22;8328;52.206;21.006;2022-12-29T01:51:55;7.40;99.90
16437;DHT22;8328;52.206;21.006;2022-12-29T01:54:37;7.40;99.90
16437;DHT22;8328;52.206;21.006;2022-12-29T01:57:11;7.40;99.90
16437;DHT22;8328;52.206;21.006;2022-12-29T01:59:45;7.40;99.90
16437;DHT22;8328;52.206;21.006;2022-12-29T02:02:14;7.40;99.90
16437;DHT22;8328;52.206;21.006;2022-12-29T02:04:41;7.30;99.90
16437;DHT22;8328;52.206;21.006;2022-12-29T02:07:18;7.30;99.90
16437;DHT22;8328;52.206;21.006;2022-12-29T02:09:48;7.30;99.90
16437;DHT22;8328;52.206;21.006;2022-12-29T02:12:14;7.30;99.90
16437;DHT22;8328;52.206;21.006;2022-12-29T02:14:40;7.30;99.90
16437;DHT22;8328;52.206;21.006;2022-12-29T02:17:15;7.40;99.90
16437;DHT22;8328;52.206;21.006;2022-12-29T02:31:01;7.30;99.90
16437;DHT22;8328;52.206;21.006;2022-12-29T02:38:50;7.20;99.90
16437;DHT22;8328;52.206;21.006;2022-12-29T02:43:58;7.20;99.90
16437;DHT22;8328;52.206;21.006;2022-12-29T02:46:53;7.20;99.90
16437;DHT22;8328;52.206;21.006;2022-12-29T02:49:33;7.10;99.90
16437;DHT22;8328;52.206;21.006;2022-12-29T02:52:12;7.10;99.90
16437;DHT22;8328;52.206;21.006;2022-12-29T02:54:40;7.00;99.90
16437;DHT22;8328;52.206;21.006;2022-12-29T02:57:14;7.00;99.90
16437;DHT22;8328;52.206;21.006;2022-12-29T02:59:42;6.90;99.90
16437;DHT22;8328;52.206;21.006;2022-12-29T03:10:10;6.80;99.90
16437;DHT22;8328;52.206;21.006;2022-12-29T03:12:53;6.80;99.90
16437;DHT22;8328;52.206;21.006;2022-12-29T03:16:18;6.80;99.90
16437;DHT22;8328;52.206;21.006;2022-12-29T03:19:08;6.80;99.90
16437;DHT22;8328;52.206;21.006;2022-12-29T03:21:44;6.70;99.90
16437;DHT22;8328;52.206;21.006;2022-12-29T03:24:36;6.60;99.90
16437;DHT22;8328;52.206;21.006;2022-12-29T03:27:05;6.70;99.90
16437;DHT22;8328;52.206;21.006;2022-12-29T03:29:37;6.60;99.90
16437;DHT22;8328;52.206;21.006;2022-12-29T03:32:05;6.60;99.90
16437;DHT22;8328;52.206;21.006;2022-12-29T03:34:32;6.60;99.90
16437;DHT22;8328;52.206;21.006;2022-12-29T03:37:11;6.60;99.90
16437;DHT22;8328;52.206;21.006;2022-12-29T03:39:38;6.60;99.90
16437;DHT22;8328;52.206;21.006;2022-12-29T03:42:06;6.60;99.90
16437;DHT22;8328;52.206;21.006;2022-12-29T03:44:37;6.60;99.90
16437;DHT22;8328;52.206;21.006;2022-12-29T03:47:05;6.50;99.90
16437;DHT22;8328;52.206;21.006;2022-12-29T03:49:31;6.50;99.90
16437;DHT22;8328;52.206;21.006;2022-12-29T03:51:57;6.50;99.90
16437;DHT22;8328;52.206;21.006;2022-12-29T03:54:23;6.40;99.90
16437;DHT22;8328;52.206;21.006;2022-12-29T03:56:49;6.40;99.90
16437;DHT22;8328;52.206;21.006;2022-12-29T03:59:15;6.40;99.90
16437;DHT22;8328;52.206;21.006;2022-12-29T04:01:41;6.40;99.90
16437;DHT22;8328;52.206;21.006;2022-12-29T04:04:07;6.40;99.90
16437;DHT22;8328;52.206;21.006;2022-12-29T04:06:32;6.30;99.90
16437;DHT22;8328;52.206;21.006;2022-12-29T04:08:58;6.30;99.90
16437;DHT22;8328;52.206;21.006;2022-12-29T04:11:24;6.30;99.90
16437;DHT22;8328;52.206;21.006;2022-12-29T04:13:50;6.30;99.90
16437;DHT22;8328;52.206;21.006;2022-12-29T04:16:15;6.30;99.90
16437;DHT22;8328;52.206;21.006;2022-12-29T04:18:41;6.30;99.90
16437;DHT22;8328;52.206;21.006;2022-12-29T04:21:07;6.30;99.90
16437;DHT22;8328;52.206;21.006;2022-12-29T04:23:36;6.30;99.90
16437;DHT22;8328;52.206;21.006;2022-12-29T04:26:02;6.30;99.90
16437;DHT22;8328;52.206;21.006;2022-12-29T04:28:29;6.20;99.90
16437;DHT22;8328;52.206;21.006;2022-12-29T04:30:56;6.20;99.90
16437;DHT22;8328;52.206;21.006;2022-12-29T04:33:22;6.20;99.90
16437;DHT22;8328;52.206;21.006;2022-12-29T04:35:48;6.20;99.90
16437;DHT22;8328;52.206;21.006;2022-12-29T04:38:14;6.10;99.90
16437;DHT22;8328;52.206;21.006;2022-12-29T04:40:42;6.10;99.90
16437;DHT22;8328;52.206;21.006;2022-12-29T04:43:08;6.00;99.90
16437;DHT22;8328;52.206;21.006;2022-12-29T04:45:35;6.00;99.90
16437;DHT22;8328;52.206;21.006;2022-12-29T04:48:00;6.00;99.90
16437;DHT22;8328;52.206;21.006;2022-12-29T04:50:26;6.00;99.90
16437;DHT22;8328;52.206;21.006;2022-12-29T04:52:52;6.00;99.90
16437;DHT22;8328;52.206;21.006;2022-12-29T04:55:18;6.00;99.90
16437;DHT22;8328;52.206;21.006;2022-12-29T04:57:44;6.00;99.90
16437;DHT22;8328;52.206;21.006;2022-12-29T05:00:10;6.00;99.90
16437;DHT22;8328;52.206;21.006;2022-12-29T05:02:36;6.10;99.90
16437;DHT22;8328;52.206;21.006;2022-12-29T05:05:03;6.00;99.90
16437;DHT22;8328;52.206;21.006;2022-12-29T05:07:29;6.00;99.90
16437;DHT22;8328;52.206;21.006;2022-12-29T05:09:54;6.00;99.90
16437;DHT22;8328;52.206;21.006;2022-12-29T05:12:20;6.00;99.90
16437;DHT22;8328;52.206;21.006;2022-12-29T05:14:46;6.00;99.90
16437;DHT22;8328;52.206;21.006;2022-12-29T05:17:12;5.90;99.90
16437;DHT22;8328;52.206;21.006;2022-12-29T05:19:38;5.90;99.90
16437;DHT22;8328;52.206;21.006;2022-12-29T05:22:04;5.80;99.90
16437;DHT22;8328;52.206;21.006;2022-12-29T05:24:29;5.90;99.90
16437;DHT22;8328;52.206;21.006;2022-12-29T05:26:55;6.00;99.90
16437;DHT22;8328;52.206;21.006;2022-12-29T05:29:21;6.00;99.90
16437;DHT22;8328;52.206;21.006;2022-12-29T05:31:47;6.00;99.90
16437;DHT22;8328;52.206;21.006;2022-12-29T05:34:12;6.00;99.90
16437;DHT22;8328;52.206;21.006;2022-12-29T05:36:39;6.00;99.90
16437;DHT22;8328;52.206;21.006;2022-12-29T05:39:05;6.00;99.90
16437;DHT22;8328;52.206;21.006;2022-12-29T05:41:33;6.00;99.90
16437;DHT22;8328;52.206;21.006;2022-12-29T05:43:59;5.90;99.90
16437;DHT22;8328;52.206;21.006;2022-12-29T05:46:24;5.90;99.90
16437;DHT22;8328;52.206;21.006;2022-12-29T05:48:50;5.90;99.90
16437;DHT22;8328;52.206;21.006;2022-12-29T05:51:17;5.80;99.90
16437;DHT22;8328;52.206;21.006;2022-12-29T05:53:43;5.90;99.90
16437;DHT22;8328;52.206;21.006;2022-12-29T05:56:09;5.90;99.90
16437;DHT22;8328;52.206;21.006;2022-12-29T05:58:34;5.80;99.90
16437;DHT22;8328;52.206;21.006;2022-12-29T06:01:00;5.80;99.90
16437;DHT22;8328;52.206;21.006;2022-12-29T06:03:26;5.90;99.90
16437;DHT22;8328;52.206;21.006;2022-12-29T06:05:52;6.00;99.90
16437;DHT22;8328;52.206;21.006;2022-12-29T06:08:18;6.00;99.90
16437;DHT22;8328;52.206;21.006;2022-12-29T06:10:43;6.00;99.90
16437;DHT22;8328;52.206;21.006;2022-12-29T06:13:09;6.10;99.90
16437;DHT22;8328;52.206;21.006;2022-12-29T06:15:35;6.10;99.90
16437;DHT22;8328;52.206;21.006;2022-12-29T06:18:02;6.10;99.90
16437;DHT22;8328;52.206;21.006;2022-12-29T06:20:28;7.00;99.90
16437;DHT22;8328;52.206;21.006;2022-12-29T06:22:54;7.70;99.90
16437;DHT22;8328;52.206;21.006;2022-12-29T06:25:19;8.00;99.90
16437;DHT22;8328;52.206;21.006;2022-12-29T06:27:45;8.30;99.90
16437;DHT22;8328;52.206;21.006;2022-12-29T06:30:11;8.80;99.90
16437;DHT22;8328;52.206;21.006;2022-12-29T06:32:38;8.90;99.90
16437;DHT22;8328;52.206;21.006;2022-12-29T06:35:05;8.80;99.90
16437;DHT22;8328;52.206;21.006;2022-12-29T06:37:33;9.00;99.90
16437;DHT22;8328;52.206;21.006;2022-12-29T06:39:59;9.20;99.90
16437;DHT22;8328;52.206;21.006;2022-12-29T06:42:25;9.10;99.90
16437;DHT22;8328;52.206;21.006;2022-12-29T06:44:53;9.10;99.90
16437;DHT22;8328;52.206;21.006;2022-12-29T06:47:19;9.00;99.90
16437;DHT22;8328;52.206;21.006;2022-12-29T06:49:45;9.10;99.90
16437;DHT22;8328;52.206;21.006;2022-12-29T06:52:11;9.10;99.90
16437;DHT22;8328;52.206;21.006;2022-12-29T06:54:36;9.00;99.90
16437;DHT22;8328;52.206;21.006;2022-12-29T06:57:02;8.90;99.90
16437;DHT22;8328;52.206;21.006;2022-12-29T06:59:28;9.00;99.90
16437;DHT22;8328;52.206;21.006;2022-12-29T07:01:54;8.90;99.90
16437;DHT22;8328;52.206;21.006;2022-12-29T07:04:20;8.70;99.90
16437;DHT22;8328;52.206;21.006;2022-12-29T07:06:46;8.30;99.90
16437;DHT22;8328;52.206;21.006;2022-12-29T07:09:12;8.00;99.90
16437;DHT22;8328;52.206;21.006;2022-12-29T07:11:37;7.70;99.90
16437;DHT22;8328;52.206;21.006;2022-12-29T07:14:03;7.50;99.90
16437;DHT22;8328;52.206;21.006;2022-12-29T07:16:31;7.40;99.90
16437;DHT22;8328;52.206;21.006;2022-12-29T07:18:58;7.30;99.90
16437;DHT22;8328;52.206;21.006;2022-12-29T07:21:25;7.20;99.90
16437;DHT22;8328;52.206;21.006;2022-12-29T07:23:50;7.10;99.90
16437;DHT22;8328;52.206;21.006;2022-12-29T07:26:16;7.10;99.90
16437;DHT22;8328;52.206;21.006;2022-12-29T07:28:45;7.10;99.90
16437;DHT22;8328;52.206;21.006;2022-12-29T07:31:16;7.10;99.90
16437;DHT22;8328;52.206;21.006;2022-12-29T07:33:42;7.20;99.90
16437;DHT22;8328;52.206;21.006;2022-12-29T07:36:09;7.20;99.90
16437;DHT22;8328;52.206;21.006;2022-12-29T07:38:35;7.20;99.90
16437;DHT22;8328;52.206;21.006;2022-12-29T07:41:01;7.20;99.90
16437;DHT22;8328;52.206;21.006;2022-12-29T07:43:27;7.30;99.90
16437;DHT22;8328;52.206;21.006;2022-12-29T07:45:53;7.30;99.90
16437;DHT22;8328;52.206;21.006;2022-12-29T07:48:19;7.30;99.90
16437;DHT22;8328;52.206;21.006;2022-12-29T07:50:45;7.30;99.90
16437;DHT22;8328;52.206;21.006;2022-12-29T07:53:11;7.30;99.90
16437;DHT22;8328;52.206;21.006;2022-12-29T07:55:37;7.30;99.90
16437;DHT22;8328;52.206;21.006;2022-12-29T07:58:03;7.30;99.90
16437;DHT22;8328;52.206;21.006;2022-12-29T08:00:29;7.30;99.90
16437;DHT22;8328;52.206;21.006;2022-12-29T08:02:55;7.30;99.90
16437;DHT22;8328;52.206;21.006;2022-12-29T08:05:20;7.40;99.90
16437;DHT22;8328;52.206;21.006;2022-12-29T08:07:46;7.40;99.90
16437;DHT22;8328;52.206;21.006;2022-12-29T08:10:14;7.60;99.90
16437;DHT22;8328;52.206;21.006;2022-12-29T08:12:40;7.70;99.90
16437;DHT22;8328;52.206;21.006;2022-12-29T08:15:07;7.80;99.90
16437;DHT22;8328;52.206;21.006;2022-12-29T08:17:33;7.90;99.90
16437;DHT22;8328;52.206;21.006;2022-12-29T08:19:59;8.00;99.90
16437;DHT22;8328;52.206;21.006;2022-12-29T08:22:25;8.10;99.90
16437;DHT22;8328;52.206;21.006;2022-12-29T08:24:51;8.20;99.90
16437;DHT22;8328;52.206;21.006;2022-12-29T08:27:17;8.30;99.90
16437;DHT22;8328;52.206;21.006;2022-12-29T08:29:43;8.50;99.90
16437;DHT22;8328;52.206;21.006;2022-12-29T08:32:10;8.50;99.90
16437;DHT22;8328;52.206;21.006;2022-12-29T08:34:35;8.60;99.90
16437;DHT22;8328;52.206;21.006;2022-12-29T08:37:04;8.60;99.90
16437;DHT22;8328;52.206;21.006;2022-12-29T08:39:30;8.60;99.90
16437;DHT22;8328;52.206;21.006;2022-12-29T08:41:56;8.80;99.90
16437;DHT22;8328;52.206;21.006;2022-12-29T08:44:22;8.90;99.90
16437;DHT22;8328;52.206;21.006;2022-12-29T08:46:47;9.10;99.90
16437;DHT22;8328;52.206;21.006;2022-12-29T08:49:13;9.20;99.90
16437;DHT22;8328;52.206;21.006;2022-12-29T08:51:39;9.20;99.90
16437;DHT22;8328;52.206;21.006;2022-12-29T08:54:05;9.20;99.90
16437;DHT22;8328;52.206;21.006;2022-12-29T08:56:31;9.30;99.90
16437;DHT22;8328;52.206;21.006;2022-12-29T08:58:57;9.30;99.90
16437;DHT22;8328;52.206;21.006;2022-12-29T09:01:24;9.30;99.90
16437;DHT22;8328;52.206;21.006;2022-12-29T09:03:49;9.40;99.90
16437;DHT22;8328;52.206;21.006;2022-12-29T09:06:17;9.50;99.90
16437;DHT22;8328;52.206;21.006;2022-12-29T09:08:43;9.60;99.90
16437;DHT22;8328;52.206;21.006;2022-12-29T09:11:12;9.60;99.90
16437;DHT22;8328;52.206;21.006;2022-12-29T09:13:38;9.60;99.90
16437;DHT22;8328;52.206;21.006;2022-12-29T09:16:04;9.70;99.90
16437;DHT22;8328;52.206;21.006;2022-12-29T09:18:30;9.80;99.90
16437;DHT22;8328;52.206;21.006;2022-12-29T09:20:58;9.80;99.90
16437;DHT22;8328;52.206;21.006;2022-12-29T09:23:24;9.90;99.90
16437;DHT22;8328;52.206;21.006;2022-12-29T09:25:50;10.00;99.90
16437;DHT22;8328;52.206;21.006;2022-12-29T09:28:16;10.10;99.90
16437;DHT22;8328;52.206;21.006;2022-12-29T09:30:42;10.20;99.90
16437;DHT22;8328;52.206;21.006;2022-12-29T09:33:09;10.20;99.90
16437;DHT22;8328;52.206;21.006;2022-12-29T09:35:35;10.10;99.90
16437;DHT22;8328;52.206;21.006;2022-12-29T09:38:01;10.00;99.90
16437;DHT22;8328;52.206;21.006;2022-12-29T09:40:30;9.90;99.90
16437;DHT22;8328;52.206;21.006;2022-12-29T09:45:43;9.80;99.90
16437;DHT22;8328;52.206;21.006;2022-12-29T09:48:23;9.60;99.90
16437;DHT22;8328;52.206;21.006;2022-12-29T09:50:59;9.70;99.90
16437;DHT22;8328;52.206;21.006;2022-12-29T09:53:40;9.80;99.90
16437;DHT22;8328;52.206;21.006;2022-12-29T09:56:13;9.80;99.90
16437;DHT22;8328;52.206;21.006;2022-12-29T10:01:38;9.80;99.90
16437;DHT22;8328;52.206;21.006;2022-12-29T10:04:07;9.80;99.90
16437;DHT22;8328;52.206;21.006;2022-12-29T10:06:54;9.80;99.90
16437;DHT22;8328;52.206;21.006;2022-12-29T10:12:36;9.60;99.90
16437;DHT22;8328;52.206;21.006;2022-12-29T10:25:45;9.50;99.90
16437;DHT22;8328;52.206;21.006;2022-12-29T10:28:33;9.50;99.90
16437;DHT22;8328;52.206;21.006;2022-12-29T10:31:00;9.50;99.90
16437;DHT22;8328;52.206;21.006;2022-12-29T10:33:36;9.50;99.90
16437;DHT22;8328;52.206;21.006;2022-12-29T10:42:57;9.60;99.90
16437;DHT22;8328;52.206;21.006;2022-12-29T10:44:58;9.70;99.90
16437;DHT22;8328;52.206;21.006;2022-12-29T10:47:28;9.90;99.90
16437;DHT22;8328;52.206;21.006;2022-12-29T10:49:55;10.00;99.90
16437;DHT22;8328;52.206;21.006;2022-12-29T10:52:24;10.10;99.90
16437;DHT22;8328;52.206;21.006;2022-12-29T10:54:59;10.30;99.90
16437;DHT22;8328;52.206;21.006;2022-12-29T10:57:31;10.50;99.90
16437;DHT22;8328;52.206;21.006;2022-12-29T10:59:58;10.40;99.90
16437;DHT22;8328;52.206;21.006;2022-12-29T11:07:53;10.40;99.90
16437;DHT22;8328;52.206;21.006;2022-12-29T11:10:35;10.40;99.90
16437;DHT22;8328;52.206;21.006;2022-12-29T11:13:12;10.30;99.90
16437;DHT22;8328;52.206;21.006;2022-12-29T11:18:19;10.50;99.90
16437;DHT22;8328;52.206;21.006;2022-12-29T11:20:45;10.50;99.90
16437;DHT22;8328;52.206;21.006;2022-12-29T11:23:33;10.50;99.90
16437;DHT22;8328;52.206;21.006;2022-12-29T11:28:31;10.50;99.90
16437;DHT22;8328;52.206;21.006;2022-12-29T11:31:03;10.50;99.90
16437;DHT22;8328;52.206;21.006;2022-12-29T11:33:39;10.50;99.90
16437;DHT22;8328;52.206;21.006;2022-12-29T11:38:40;10.60;99.90
16437;DHT22;8328;52.206;21.006;2022-12-29T11:41:09;10.50;99.90
16437;DHT22;8328;52.206;21.006;2022-12-29T11:43:39;10.40;99.90
16437;DHT22;8328;52.206;21.006;2022-12-29T11:46:06;10.40;99.90
16437;DHT22;8328;52.206;21.006;2022-12-29T11:48:39;10.30;99.90
16437;DHT22;8328;52.206;21.006;2022-12-29T11:51:06;10.30;99.90
16437;DHT22;8328;52.206;21.006;2022-12-29T11:53:46;10.30;99.90
16437;DHT22;8328;52.206;21.006;2022-12-29T11:56:16;10.30;99.90
16437;DHT22;8328;52.206;21.006;2022-12-29T11:58:42;10.30;99.90
16437;DHT22;8328;52.206;21.006;2022-12-29T12:04:12;10.30;99.90
16437;DHT22;8328;52.206;21.006;2022-12-29T12:07:07;10.30;99.90
16437;DHT22;8328;52.206;21.006;2022-12-29T12:09:43;10.20;99.90
16437;DHT22;8328;52.206;21.006;2022-12-29T12:12:23;10.30;99.90
16437;DHT22;8328;52.206;21.006;2022-12-29T12:14:58;10.40;99.90
16437;DHT22;8328;52.206;21.006;2022-12-29T12:17:31;10.40;99.90
16437;DHT22;8328;52.206;21.006;2022-12-29T12:20:17;10.40;99.90
16437;DHT22;8328;52.206;21.006;2022-12-29T12:25:40;10.30;99.90
16437;DHT22;8328;52.206;21.006;2022-12-29T12:31:26;10.30;99.90
16437;DHT22;8328;52.206;21.006;2022-12-29T12:34:00;10.30;99.90
16437;DHT22;8328;52.206;21.006;2022-12-29T12:37:01;10.30;99.90
16437;DHT22;8328;52.206;21.006;2022-12-29T12:45:32;10.30;99.90
16437;DHT22;8328;52.206;21.006;2022-12-29T12:53:15;10.50;99.90
16437;DHT22;8328;52.206;21.006;2022-12-29T13:01:42;10.60;99.90
16437;DHT22;8328;52.206;21.006;2022-12-29T13:23:22;10.50;99.90
16437;DHT22;8328;52.206;21.006;2022-12-29T13:29:00;10.30;99.90
16437;DHT22;8328;52.206;21.006;2022-12-29T13:34:32;10.40;99.90
16437;DHT22;8328;52.206;21.006;2022-12-29T13:37:11;10.40;99.90
16437;DHT22;8328;52.206;21.006;2022-12-29T13:39:52;10.40;99.90
16437;DHT22;8328;52.206;21.006;2022-12-29T13:42:21;10.30;99.90
16437;DHT22;8328;52.206;21.006;2022-12-29T13:44:54;10.30;99.90
16437;DHT22;8328;52.206;21.006;2022-12-29T13:47:31;10.30;99.90
16437;DHT22;8328;52.206;21.006;2022-12-29T13:50:00;10.40;99.90
16437;DHT22;8328;52.206;21.006;2022-12-29T13:55:27;10.30;99.90
16437;DHT22;8328;52.206;21.006;2022-12-29T13:58:13;10.30;99.90
16437;DHT22;8328;52.206;21.006;2022-12-29T14:01:03;10.30;99.90
16437;DHT22;8328;52.206;21.006;2022-12-29T14:06:30;10.30;99.90
16437;DHT22;8328;52.206;21.006;2022-12-29T14:09:04;10.30;99.90
16437;DHT22;8328;52.206;21.006;2022-12-29T14:11:38;10.30;99.90
16437;DHT22;8328;52.206;21.006;2022-12-29T14:14:34;10.30;99.90
16437;DHT22;8328;52.206;21.006;2022-12-29T14:17:12;10.30;99.90
16437;DHT22;8328;52.206;21.006;2022-12-29T14:19:41;10.20;99.90
16437;DHT22;8328;52.206;21.006;2022-12-29T14:22:10;10.30;99.90
16437;DHT22;8328;52.206;21.006;2022-12-29T14:24:44;10.20;99.90
16437;DHT22;8328;52.206;21.006;2022-12-29T14:34:52;10.10;99.90
16437;DHT22;8328;52.206;21.006;2022-12-29T14:37:31;10.10;99.90
16437;DHT22;8328;52.206;21.006;2022-12-29T14:40:19;10.10;99.90
16437;DHT22;8328;52.206;21.006;2022-12-29T14:42:50;10.10;99.90
16437;DHT22;8328;52.206;21.006;2022-12-29T14:47:45;10.10;99.90
16437;DHT22;8328;52.206;21.006;2022-12-29T14:50:15;10.10;99.90
16437;DHT22;8328;52.206;21.006;2022-12-29T14:53:01;10.10;99.90
16437;DHT22;8328;52.206;21.006;2022-12-29T14:58:05;10.10;99.90
16437;DHT22;8328;52.206;21.006;2022-12-29T15:00:34;10.10;99.90
16437;DHT22;8328;52.206;21.006;2022-12-29T15:05:52;10.10;99.90
16437;DHT22;8328;52.206;21.006;2022-12-29T15:08:24;10.10;99.90
16437;DHT22;8328;52.206;21.006;2022-12-29T15:10:53;10.00;99.90
16437;DHT22;8328;52.206;21.006;2022-12-29T15:13:32;10.00;99.90
16437;DHT22;8328;52.206;21.006;2022-12-29T15:15:58;9.80;99.90
16437;DHT22;8328;52.206;21.006;2022-12-29T15:18:32;9.70;99.90
16437;DHT22;8328;52.206;21.006;2022-12-29T15:21:05;9.60;99.90
16437;DHT22;8328;52.206;21.006;2022-12-29T15:23:34;9.60;99.90
16437;DHT22;8328;52.206;21.006;2022-12-29T15:26:07;9.60;99.90
16437;DHT22;8328;52.206;21.006;2022-12-29T15:28:42;9.60;99.90
16437;DHT22;8328;52.206;21.006;2022-12-29T15:33:48;9.60;99.90
16437;DHT22;8328;52.206;21.006;2022-12-29T15:36:25;9.50;99.90
16437;DHT22;8328;52.206;21.006;2022-12-29T15:38:51;9.40;99.90
16437;DHT22;8328;52.206;21.006;2022-12-29T15:41:25;9.50;99.90
16437;DHT22;8328;52.206;21.006;2022-12-29T15:46:25;9.40;99.90
16437;DHT22;8328;52.206;21.006;2022-12-29T15:48:52;9.30;99.90
16437;DHT22;8328;52.206;21.006;2022-12-29T15:51:31;9.30;99.90
16437;DHT22;8328;52.206;21.006;2022-12-29T15:53:59;9.20;99.90
16437;DHT22;8328;52.206;21.006;2022-12-29T15:56:28;9.20;99.90
16437;DHT22;8328;52.206;21.006;2022-12-29T15:58:55;9.10;99.90
16437;DHT22;8328;52.206;21.006;2022-12-29T16:01:32;9.00;99.90
16437;DHT22;8328;52.206;21.006;2022-12-29T16:04:05;9.00;99.90
16437;DHT22;8328;52.206;21.006;2022-12-29T16:06:35;9.00;99.90
16437;DHT22;8328;52.206;21.006;2022-12-29T16:09:35;8.90;99.90
16437;DHT22;8328;52.206;21.006;2022-12-29T16:12:06;8.90;99.90
16437;DHT22;8328;52.206;21.006;2022-12-29T16:14:52;8.90;99.90
16437;DHT22;8328;52.206;21.006;2022-12-29T16:17:24;8.90;99.90
16437;DHT22;8328;52.206;21.006;2022-12-29T16:20:04;8.90;99.90
16437;DHT22;8328;52.206;21.006;2022-12-29T16:22:38;8.90;99.90
16437;DHT22;8328;52.206;21.006;2022-12-29T16:25:25;8.90;99.90
16437;DHT22;8328;52.206;21.006;2022-12-29T16:27:54;8.90;99.90
16437;DHT22;8328;52.206;21.006;2022-12-29T16:30:26;8.90;99.90
16437;DHT22;8328;52.206;21.006;2022-12-29T16:32:55;8.80;99.90
16437;DHT22;8328;52.206;21.006;2022-12-29T16:35:23;8.80;99.90
16437;DHT22;8328;52.206;21.006;2022-12-29T16:38:10;8.80;99.90
16437;DHT22;8328;52.206;21.006;2022-12-29T16:40:52;8.80;99.90
16437;DHT22;8328;52.206;21.006;2022-12-29T16:43:24;8.80;99.90
16437;DHT22;8328;52.206;21.006;2022-12-29T16:48:19;8.90;99.90
16437;DHT22;8328;52.206;21.006;2022-12-29T16:50:46;9.00;99.90
16437;DHT22;8328;52.206;21.006;2022-12-29T16:53:29;9.00;99.90
16437;DHT22;8328;52.206;21.006;2022-12-29T16:55:57;9.00;99.90
16437;DHT22;8328;52.206;21.006;2022-12-29T16:58:26;9.10;99.90
16437;DHT22;8328;52.206;21.006;2022-12-29T17:01:03;9.10;99.90
16437;DHT22;8328;52.206;21.006;2022-12-29T17:03:40;9.10;99.90
16437;DHT22;8328;52.206;21.006;2022-12-29T17:06:17;9.20;99.90
16437;DHT22;8328;52.206;21.006;2022-12-29T17:08:44;9.30;99.90
16437;DHT22;8328;52.206;21.006;2022-12-29T17:11:29;9.30;99.90
16437;DHT22;8328;52.206;21.006;2022-12-29T17:14:36;9.40;99.90
16437;DHT22;8328;52.206;21.006;2022-12-29T17:17:48;9.40;99.90
16437;DHT22;8328;52.206;21.006;2022-12-29T17:19:57;9.40;99.90
16437;DHT22;8328;52.206;21.006;2022-12-29T17:22:27;9.50;99.90
16437;DHT22;8328;52.206;21.006;2022-12-29T17:24:54;9.60;99.90
16437;DHT22;8328;52.206;21.006;2022-12-29T17:27:33;9.60;99.90
16437;DHT22;8328;52.206;21.006;2022-12-29T17:30:05;9.60;99.90
16437;DHT22;8328;52.206;21.006;2022-12-29T17:32:34;9.60;99.90
16437;DHT22;8328;52.206;21.006;2022-12-29T17:35:00;9.70;99.90
16437;DHT22;8328;52.206;21.006;2022-12-29T17:37:44;9.70;99.90
16437;DHT22;8328;52.206;21.006;2022-12-29T17:40:16;9.70;99.90
16437;DHT22;8328;52.206;21.006;2022-12-29T17:42:47;9.70;99.90
16437;DHT22;8328;52.206;21.006;2022-12-29T17:45:19;9.70;99.90
16437;DHT22;8328;52.206;21.006;2022-12-29T17:47:46;9.70;99.90
16437;DHT22;8328;52.206;21.006;2022-12-29T17:50:14;9.70;99.90
16437;DHT22;8328;52.206;21.006;2022-12-29T17:52:41;9.70;99.90
16437;DHT22;8328;52.206;21.006;2022-12-29T17:55:18;9.70;99.90
16437;DHT22;8328;52.206;21.006;2022-12-29T17:57:45;9.70;99.90
16437;DHT22;8328;52.206;21.006;2022-12-29T18:00:19;9.70;99.90
16437;DHT22;8328;52.206;21.006;2022-12-29T18:02:45;9.80;99.90
16437;DHT22;8328;52.206;21.006;2022-12-29T18:05:19;9.70;99.90
16437;DHT22;8328;52.206;21.006;2022-12-29T18:07:45;9.70;99.90
16437;DHT22;8328;52.206;21.006;2022-12-29T18:10:12;9.70;99.90
16437;DHT22;8328;52.206;21.006;2022-12-29T18:12:40;9.70;99.90
16437;DHT22;8328;52.206;21.006;2022-12-29T18:15:17;9.60;99.90
16437;DHT22;8328;52.206;21.006;2022-12-29T18:17:43;9.60;99.90
16437;DHT22;8328;52.206;21.006;2022-12-29T18:20:09;9.60;99.90
16437;DHT22;8328;52.206;21.006;2022-12-29T18:22:35;9.60;99.90
16437;DHT22;8328;52.206;21.006;2022-12-29T18:25:01;9.60;99.90
16437;DHT22;8328;52.206;21.006;2022-12-29T18:27:27;9.50;99.90
16437;DHT22;8328;52.206;21.006;2022-12-29T18:29:53;9.50;99.90
16437;DHT22;8328;52.206;21.006;2022-12-29T18:32:19;9.50;99.90
16437;DHT22;8328;52.206;21.006;2022-12-29T18:34:46;9.40;99.90
16437;DHT22;8328;52.206;21.006;2022-12-29T18:37:13;9.30;99.90